createdAt,value
2022-12-11T00:00:48.466Z,94.46
2022-12-11T00:03:17.084Z,94.33
2022-12-11T00:05:44.536Z,94.16
2022-12-11T00:08:11.819Z,94.17
2022-12-11T00:10:38.438Z,94.06
2022-12-11T00:13:04.985Z,94.17
2022-12-11T00:15:31.565Z,94.19
2022-12-11T00:17:58.050Z,94.31
2022-12-11T00:20:24.724Z,94.01
2022-12-11T00:22:51.236Z,93.96
2022-12-11T00:25:17.705Z,93.97
2022-12-11T00:27:46.705Z,93.93
2022-12-11T00:30:13.920Z,94.01
2022-12-11T00:32:40.658Z,93.52
2022-12-11T00:35:07.282Z,93.58
2022-12-11T00:37:33.859Z,93.41
2022-12-11T00:40:00.404Z,93.47
2022-12-11T00:42:26.841Z,93.45
2022-12-11T00:44:54.836Z,93.45
2022-12-11T00:47:21.254Z,93.72
2022-12-11T00:49:49.947Z,93.38
2022-12-11T00:52:17.833Z,93.20
2022-12-11T00:54:44.604Z,93.37
2022-12-11T00:57:11.032Z,93.21
2022-12-11T00:59:38.332Z,93.39
2022-12-11T01:02:04.752Z,93.06
2022-12-11T01:04:31.138Z,93.29
2022-12-11T01:06:58.009Z,93.20
2022-12-11T01:09:42.906Z,93.60
2022-12-11T01:12:09.340Z,93.80
2022-12-11T01:14:35.790Z,93.93
2022-12-11T01:17:02.319Z,93.78
2022-12-11T01:19:28.805Z,93.98
2022-12-11T01:21:55.256Z,94.16
2022-12-11T01:24:21.677Z,93.94
2022-12-11T01:26:48.096Z,94.23
2022-12-11T01:29:14.479Z,93.94
2022-12-11T01:31:41.296Z,94.09
2022-12-11T01:34:07.698Z,94.07
2022-12-11T01:36:34.137Z,94.17
2022-12-11T01:39:00.596Z,94.09
2022-12-11T01:41:26.979Z,94.01
2022-12-11T01:44:00.635Z,93.82
2022-12-11T01:46:27.506Z,94.33
2022-12-11T01:48:54.442Z,94.51
2022-12-11T01:51:21.577Z,94.34
2022-12-11T01:54:01.102Z,94.38
2022-12-11T01:56:29.497Z,94.31
2022-12-11T01:58:59.755Z,94.27
2022-12-11T02:01:28.427Z,94.69
2022-12-11T02:03:55.845Z,94.55
2022-12-11T02:06:39.649Z,94.21
2022-12-11T02:09:13.878Z,93.95
2022-12-11T02:12:07.658Z,93.82
2022-12-11T02:14:45.032Z,93.59
2022-12-11T02:17:32.488Z,93.43
2022-12-11T02:20:16.160Z,93.55
2022-12-11T02:23:03.946Z,93.50
2022-12-11T02:25:48.662Z,93.50
2022-12-11T02:28:38.326Z,93.34
2022-12-11T02:31:32.120Z,92.91
2022-12-11T02:34:41.453Z,93.14
2022-12-11T02:37:13.428Z,93.03
2022-12-11T02:39:40.876Z,92.90
2022-12-11T02:42:08.135Z,92.92
2022-12-11T02:44:34.971Z,92.93
2022-12-11T02:47:03.359Z,92.56
2022-12-11T02:49:31.199Z,92.56
2022-12-11T02:51:58.104Z,92.82
2022-12-11T02:54:30.942Z,92.58
2022-12-11T02:57:02.248Z,92.86
2022-12-11T02:59:34.672Z,92.71
2022-12-11T03:02:01.487Z,92.50
2022-12-11T03:04:28.873Z,92.60
2022-12-11T03:06:59.887Z,92.48
2022-12-11T03:09:27.921Z,92.35
2022-12-11T03:11:54.434Z,92.13
2022-12-11T03:14:20.876Z,92.13
2022-12-11T03:17:19.555Z,91.94
2022-12-11T03:19:48.330Z,92.15
2022-12-11T03:22:27.698Z,92.05
2022-12-11T03:25:03.982Z,92.15
2022-12-11T03:27:34.190Z,92.19
2022-12-11T03:30:06.165Z,92.13
2022-12-11T03:32:39.191Z,92.10
2022-12-11T03:35:11.700Z,92.13
2022-12-11T03:37:40.726Z,91.67
2022-12-11T03:40:11.449Z,91.99
2022-12-11T03:42:38.851Z,91.51
2022-12-11T03:45:06.515Z,91.84
2022-12-11T03:47:33.282Z,91.12
2022-12-11T03:49:59.923Z,91.50
2022-12-11T03:52:27.531Z,91.00
2022-12-11T03:54:54.946Z,91.47
2022-12-11T03:57:22.605Z,91.64
2022-12-11T03:59:49.916Z,91.83
2022-12-11T04:02:16.392Z,91.59
2022-12-11T04:04:43.140Z,91.36
2022-12-11T04:07:09.587Z,90.94
2022-12-11T04:09:36.470Z,91.00
2022-12-11T04:12:03.032Z,91.24
2022-12-11T04:14:48.095Z,91.21
2022-12-11T04:17:34.504Z,91.00
2022-12-11T04:20:19.520Z,90.57
2022-12-11T04:23:04.615Z,90.58
2022-12-11T04:25:31.025Z,90.87
2022-12-11T04:27:57.440Z,90.75
2022-12-11T04:30:29.346Z,90.73
2022-12-11T04:32:58.886Z,90.57
2022-12-11T04:35:25.308Z,90.77
2022-12-11T04:37:52.646Z,90.62
2022-12-11T04:40:20.071Z,90.60
2022-12-11T04:42:46.487Z,90.97
2022-12-11T04:45:13.560Z,90.82
2022-12-11T04:47:41.057Z,90.60
2022-12-11T04:50:09.343Z,90.99
2022-12-11T04:52:35.776Z,91.07
2022-12-11T04:55:04.835Z,90.96
2022-12-11T04:57:31.195Z,90.48
2022-12-11T04:59:57.608Z,90.62
2022-12-11T05:02:24.193Z,90.68
2022-12-11T05:04:50.645Z,90.64
2022-12-11T05:07:17.019Z,90.89
2022-12-11T05:09:43.575Z,90.43
2022-12-11T05:12:09.995Z,90.50
2022-12-11T05:14:36.418Z,90.49
2022-12-11T05:17:02.838Z,90.19
2022-12-11T05:19:29.299Z,90.13
2022-12-11T05:21:55.678Z,90.03
2022-12-11T05:24:22.044Z,90.47
2022-12-11T05:26:48.424Z,90.79
2022-12-11T05:29:14.842Z,90.51
2022-12-11T05:31:41.460Z,91.17
2022-12-11T05:34:08.118Z,90.68
2022-12-11T05:36:34.835Z,90.18
2022-12-11T05:39:01.825Z,90.70
2022-12-11T05:41:29.987Z,90.63
2022-12-11T05:43:56.479Z,90.35
2022-12-11T05:46:25.247Z,90.51
2022-12-11T05:48:55.004Z,90.60
2022-12-11T05:51:21.831Z,90.99
2022-12-11T05:53:50.035Z,91.02
2022-12-11T05:56:38.777Z,91.02
2022-12-11T05:59:06.622Z,91.33
2022-12-11T06:01:38.820Z,90.75
2022-12-11T06:04:06.202Z,91.11
2022-12-11T06:06:33.140Z,91.04
2022-12-11T06:09:00.504Z,90.94
2022-12-11T06:11:28.527Z,90.77
2022-12-11T06:13:55.191Z,90.80
2022-12-11T06:16:22.182Z,90.59
2022-12-11T06:18:48.604Z,90.82
2022-12-11T06:21:17.278Z,90.94
2022-12-11T06:23:44.944Z,91.22
2022-12-11T06:26:11.781Z,91.08
2022-12-11T06:28:38.255Z,90.98
2022-12-11T06:31:04.855Z,91.12
2022-12-11T06:33:31.784Z,91.15
2022-12-11T06:36:05.754Z,90.86
2022-12-11T06:38:32.139Z,90.89
2022-12-11T06:41:00.235Z,90.81
2022-12-11T06:43:26.786Z,90.62
2022-12-11T06:45:53.250Z,90.79
2022-12-11T06:48:20.272Z,90.42
2022-12-11T06:50:46.864Z,90.59
2022-12-11T06:53:15.892Z,90.23
2022-12-11T06:55:42.715Z,90.65
2022-12-11T06:58:09.680Z,90.83
2022-12-11T07:00:36.615Z,90.80
2022-12-11T07:03:03.927Z,90.78
2022-12-11T07:05:31.278Z,90.92
2022-12-11T07:07:58.087Z,90.75
2022-12-11T07:10:26.207Z,90.95
2022-12-11T07:12:53.615Z,91.02
2022-12-11T07:15:20.051Z,90.94
2022-12-11T07:17:46.436Z,90.92
2022-12-11T07:20:12.919Z,90.91
2022-12-11T07:22:44.660Z,90.79
2022-12-11T07:25:13.292Z,90.96
2022-12-11T07:27:40.166Z,90.70
2022-12-11T07:30:07.212Z,90.70
2022-12-11T07:32:33.767Z,90.43
2022-12-11T07:35:00.259Z,90.32
2022-12-11T07:37:26.707Z,90.08
2022-12-11T07:39:53.166Z,90.27
2022-12-11T07:42:19.601Z,90.21
2022-12-11T07:44:45.977Z,90.11
2022-12-11T07:47:12.395Z,89.68
2022-12-11T07:49:38.832Z,89.96
2022-12-11T07:52:05.298Z,90.01
2022-12-11T07:54:31.667Z,89.97
2022-12-11T07:56:58.086Z,90.00
2022-12-11T07:59:24.542Z,89.80
2022-12-11T08:01:51.025Z,89.98
2022-12-11T08:04:17.431Z,89.49
2022-12-11T08:06:43.899Z,89.98
2022-12-11T08:09:17.430Z,89.82
2022-12-11T08:11:49.342Z,90.03
2022-12-11T08:14:15.722Z,89.63
2022-12-11T08:16:44.135Z,89.66
2022-12-11T08:19:14.934Z,89.57
2022-12-11T08:21:41.479Z,89.38
2022-12-11T08:24:08.717Z,89.45
2022-12-11T08:26:35.147Z,89.78
2022-12-11T08:29:02.519Z,89.80
2022-12-11T08:31:29.740Z,89.59
2022-12-11T08:33:56.526Z,89.41
2022-12-11T08:36:23.898Z,89.44
2022-12-11T08:38:51.338Z,89.74
2022-12-11T08:41:24.108Z,89.40
2022-12-11T08:43:54.784Z,89.42
2022-12-11T08:46:25.896Z,88.94
2022-12-11T08:48:52.661Z,88.70
2022-12-11T08:51:20.935Z,88.87
2022-12-11T08:53:47.398Z,89.38
2022-12-11T08:56:15.832Z,89.00
2022-12-11T08:58:43.249Z,89.21
2022-12-11T09:01:21.448Z,89.13
2022-12-11T09:03:48.803Z,88.58
2022-12-11T09:06:18.095Z,88.45
2022-12-11T09:08:51.724Z,88.42
2022-12-11T09:11:21.733Z,88.47
2022-12-11T09:13:48.308Z,88.51
2022-12-11T09:16:16.963Z,88.77
2022-12-11T09:18:45.400Z,88.57
2022-12-11T09:21:14.767Z,88.46
2022-12-11T09:23:41.408Z,88.80
2022-12-11T09:26:12.315Z,88.42
2022-12-11T09:28:44.397Z,88.19
2022-12-11T09:31:15.530Z,88.55
2022-12-11T09:33:42.078Z,88.12
2022-12-11T09:36:08.932Z,88.30
2022-12-11T09:38:36.495Z,87.94
2022-12-11T09:41:20.804Z,86.91
2022-12-11T09:44:15.246Z,87.36
2022-12-11T09:46:42.649Z,87.48
2022-12-11T09:49:27.587Z,87.02
2022-12-11T09:52:21.431Z,87.04
2022-12-11T09:54:54.905Z,87.11
2022-12-11T09:57:35.252Z,86.92
2022-12-11T10:00:10.935Z,87.06
2022-12-11T10:02:59.210Z,86.85
2022-12-11T10:06:20.990Z,86.97
2022-12-11T10:08:57.301Z,86.57
2022-12-11T10:12:02.971Z,86.75
2022-12-11T10:14:43.786Z,85.72
2022-12-11T10:17:13.471Z,85.91
2022-12-11T10:19:41.373Z,86.43
2022-12-11T10:22:18.013Z,86.09
2022-12-11T10:27:40.292Z,85.69
2022-12-11T10:30:12.925Z,85.91
2022-12-11T10:33:08.562Z,86.03
2022-12-11T10:35:59.050Z,86.03
2022-12-11T10:38:29.574Z,85.91
2022-12-11T10:40:59.323Z,86.02
2022-12-11T10:43:42.425Z,86.33
2022-12-11T10:46:21.078Z,85.67
2022-12-11T10:48:55.955Z,85.99
2022-12-11T10:51:25.299Z,86.21
2022-12-11T10:53:53.699Z,86.35
2022-12-11T10:56:31.696Z,86.01
2022-12-11T10:58:59.048Z,85.71
2022-12-11T11:01:27.917Z,85.82
2022-12-11T11:04:06.687Z,85.28
2022-12-11T11:06:33.623Z,85.50
2022-12-11T11:09:01.309Z,86.01
2022-12-11T11:11:36.545Z,86.24
2022-12-11T11:14:07.920Z,85.86
2022-12-11T11:16:38.303Z,86.16
2022-12-11T11:19:05.086Z,86.13
2022-12-11T11:21:32.892Z,85.64
2022-12-11T11:23:59.427Z,85.94
2022-12-11T11:26:43.501Z,86.17
2022-12-11T11:29:32.353Z,86.02
2022-12-11T11:32:14.848Z,85.60
2022-12-11T11:34:41.515Z,86.38
2022-12-11T11:37:24.226Z,85.86
2022-12-11T11:39:53.313Z,85.87
2022-12-11T11:42:27.639Z,85.33
2022-12-11T11:45:00.016Z,85.47
2022-12-11T11:47:30.511Z,85.72
2022-12-11T11:50:06.729Z,85.44
2022-12-11T11:52:45.328Z,85.81
2022-12-11T11:55:35.432Z,85.85
2022-12-11T11:58:14.690Z,85.39
2022-12-11T12:00:41.172Z,85.17
2022-12-11T12:03:14.415Z,85.28
2022-12-11T12:05:52.099Z,85.31
2022-12-11T12:08:29.098Z,85.08
2022-12-11T12:11:05.526Z,85.27
2022-12-11T12:13:49.975Z,85.82
2022-12-11T12:19:42.496Z,85.97
2022-12-11T12:22:28.042Z,85.79
2022-12-11T12:25:31.978Z,85.83
2022-12-11T12:28:17.463Z,86.13
2022-12-11T12:31:00.519Z,85.94
2022-12-11T12:33:29.789Z,85.82
2022-12-11T12:36:07.251Z,85.64
2022-12-11T12:38:47.423Z,85.83
2022-12-11T12:41:51.415Z,85.94
2022-12-11T12:44:20.289Z,85.85
2022-12-11T12:46:59.679Z,84.78
2022-12-11T12:49:49.138Z,84.54
2022-12-11T12:52:18.875Z,85.00
2022-12-11T12:55:07.733Z,84.89
2022-12-11T12:57:34.177Z,85.13
2022-12-11T13:00:00.615Z,85.22
2022-12-11T13:02:27.629Z,85.44
2022-12-11T13:05:05.269Z,84.78
2022-12-11T13:07:32.660Z,84.91
2022-12-11T13:10:22.885Z,85.03
2022-12-11T13:12:49.369Z,84.85
2022-12-11T13:15:34.752Z,84.90
2022-12-11T13:18:07.082Z,85.29
2022-12-11T13:20:34.627Z,85.52
2022-12-11T13:23:07.060Z,85.04
2022-12-11T13:25:52.960Z,84.72
2022-12-11T13:28:30.166Z,85.24
2022-12-11T13:31:03.266Z,85.37
2022-12-11T13:33:30.551Z,85.26
2022-12-11T13:36:31.112Z,84.80
2022-12-11T13:39:18.788Z,84.52
2022-12-11T13:41:53.188Z,84.26
2022-12-11T13:44:25.617Z,84.71
2022-12-11T13:46:53.683Z,84.93
2022-12-11T13:49:26.790Z,84.89
2022-12-11T13:51:58.837Z,84.80
2022-12-11T13:54:28.229Z,84.72
2022-12-11T13:56:57.623Z,84.79
2022-12-11T13:59:36.055Z,84.78
2022-12-11T14:02:22.879Z,84.52
2022-12-11T14:04:52.376Z,84.72
2022-12-11T14:07:24.551Z,84.76
2022-12-11T14:09:51.152Z,84.74
2022-12-11T14:12:20.097Z,85.23
2022-12-11T14:14:55.163Z,85.13
2022-12-11T14:17:28.433Z,84.53
2022-12-11T14:19:57.203Z,85.02
2022-12-11T14:22:26.367Z,85.08
2022-12-11T14:24:55.433Z,84.97
2022-12-11T14:27:22.061Z,84.75
2022-12-11T14:29:48.891Z,84.87
2022-12-11T14:32:33.008Z,84.87
2022-12-11T14:35:02.168Z,84.71
2022-12-11T14:37:28.684Z,85.14
2022-12-11T14:40:07.100Z,85.08
2022-12-11T14:43:00.013Z,85.15
2022-12-11T14:45:39.592Z,85.36
2022-12-11T14:48:28.295Z,85.28
2022-12-11T14:50:57.820Z,85.28
2022-12-11T14:53:38.388Z,85.07
2022-12-11T14:56:13.675Z,85.73
2022-12-11T14:58:43.705Z,85.64
2022-12-11T15:01:24.491Z,85.39
2022-12-11T15:04:19.998Z,85.52
2022-12-11T15:06:48.334Z,85.65
2022-12-11T15:09:27.091Z,85.78
2022-12-11T15:11:55.983Z,85.97
2022-12-11T15:14:24.116Z,86.02
2022-12-11T15:16:51.730Z,86.07
2022-12-11T15:19:24.326Z,85.90
2022-12-11T15:21:51.200Z,86.11
2022-12-11T15:24:38.387Z,86.04
2022-12-11T15:27:05.224Z,86.27
2022-12-11T15:29:37.664Z,85.98
2022-12-11T15:32:14.115Z,86.00
2022-12-11T15:34:44.659Z,86.47
2022-12-11T15:37:28.262Z,86.32
2022-12-11T15:39:56.292Z,86.26
2022-12-11T15:42:35.337Z,86.24
2022-12-11T15:45:02.867Z,86.45
2022-12-11T15:47:30.976Z,85.95
2022-12-11T15:50:00.364Z,86.01
2022-12-11T15:52:26.828Z,86.30
2022-12-11T15:54:53.267Z,85.96
2022-12-11T15:57:21.534Z,85.93
2022-12-11T15:59:52.439Z,86.24
2022-12-11T16:02:18.925Z,86.03
2022-12-11T16:04:45.398Z,86.14
2022-12-11T16:07:20.217Z,85.50
2022-12-11T16:09:47.166Z,85.96
2022-12-11T16:12:14.287Z,86.12
2022-12-11T16:14:44.950Z,86.16
2022-12-11T16:17:13.276Z,86.10
2022-12-11T16:19:40.699Z,86.34
2022-12-11T16:22:08.820Z,85.87
2022-12-11T16:24:35.880Z,85.80
2022-12-11T16:27:02.755Z,85.83
2022-12-11T16:29:29.191Z,85.68
2022-12-11T16:31:55.604Z,85.50
2022-12-11T16:34:26.698Z,86.00
2022-12-11T16:36:54.815Z,86.03
2022-12-11T16:39:21.222Z,85.38
2022-12-11T16:41:47.815Z,86.01
2022-12-11T16:44:14.278Z,86.13
2022-12-11T16:46:40.854Z,86.11
2022-12-11T16:49:07.313Z,85.85
2022-12-11T16:51:33.759Z,85.87
2022-12-11T16:54:00.200Z,85.83
2022-12-11T16:56:26.871Z,86.07
2022-12-11T16:58:53.251Z,85.50
2022-12-11T17:01:19.770Z,85.26
2022-12-11T17:03:46.560Z,85.19
2022-12-11T17:06:15.011Z,85.29
2022-12-11T17:08:42.593Z,85.46
2022-12-11T17:11:14.725Z,85.47
2022-12-11T17:13:41.594Z,85.22
2022-12-11T17:16:12.700Z,84.77
2022-12-11T17:18:39.954Z,84.80
2022-12-11T17:21:08.109Z,84.89
2022-12-11T17:23:34.897Z,84.63
2022-12-11T17:26:13.540Z,85.02
2022-12-11T17:28:40.184Z,85.24
2022-12-11T17:31:08.374Z,85.14
2022-12-11T17:33:35.380Z,84.88
2022-12-11T17:36:03.269Z,85.04
2022-12-11T17:38:29.881Z,84.74
2022-12-11T17:40:56.503Z,84.93
2022-12-11T17:46:48.681Z,84.87
2022-12-11T17:49:15.074Z,84.49
2022-12-11T17:52:18.756Z,84.22
2022-12-11T17:55:03.826Z,84.14
2022-12-11T17:57:44.530Z,83.99
2022-12-11T18:00:11.533Z,84.03
2022-12-11T18:02:52.631Z,83.74
2022-12-11T18:05:19.147Z,83.75
2022-12-11T18:07:45.606Z,83.54
2022-12-11T18:10:12.039Z,83.59
2022-12-11T19:36:13.173Z,82.25
2022-12-11T19:38:41.271Z,82.08
2022-12-11T19:41:10.468Z,81.96
2022-12-11T19:43:36.993Z,81.66
2022-12-11T19:46:06.321Z,81.36
2022-12-11T19:48:32.963Z,81.46
2022-12-11T19:51:12.527Z,81.05
2022-12-11T19:53:39.944Z,81.47
2022-12-11T19:56:06.955Z,81.72
2022-12-11T19:58:33.548Z,81.45
2022-12-11T20:01:02.759Z,81.76
2022-12-11T20:03:29.873Z,81.95
2022-12-11T20:06:05.194Z,82.06
2022-12-11T20:08:47.511Z,81.91
2022-12-11T20:11:18.455Z,81.84
2022-12-11T20:13:46.666Z,81.58
2022-12-11T20:16:14.187Z,81.93
2022-12-11T20:18:41.581Z,81.90
2022-12-11T20:21:10.297Z,81.58
2022-12-11T20:23:37.032Z,81.46
2022-12-11T20:26:15.058Z,81.51
2022-12-11T20:28:43.788Z,81.46
2022-12-11T20:31:42.376Z,81.62
2022-12-11T20:34:28.966Z,82.07
2022-12-11T20:36:56.251Z,82.10
2022-12-11T20:39:22.803Z,82.15
2022-12-11T20:41:49.864Z,82.60
2022-12-11T20:44:16.879Z,83.04
2022-12-11T20:46:43.424Z,82.98
2022-12-11T20:49:16.555Z,82.75
2022-12-11T20:51:45.349Z,82.51
2022-12-11T20:54:12.019Z,82.76
2022-12-11T20:56:38.716Z,82.58
2022-12-11T20:59:05.460Z,81.85
2022-12-11T21:01:34.897Z,82.30
2022-12-11T21:04:01.535Z,81.87
2022-12-11T21:06:36.527Z,81.74
2022-12-11T21:09:07.574Z,81.95
2022-12-11T21:11:34.500Z,81.91
2022-12-11T21:14:01.198Z,82.57
2022-12-11T21:16:28.391Z,82.56
2022-12-11T21:18:58.900Z,82.12
2022-12-11T21:21:26.187Z,82.29
2022-12-11T21:23:52.918Z,81.98
2022-12-11T21:26:20.142Z,81.95
2022-12-11T21:28:59.524Z,82.14
2022-12-11T21:31:29.758Z,81.91
2022-12-11T21:33:58.417Z,82.43
2022-12-11T21:36:25.126Z,82.59
2022-12-11T21:38:51.797Z,81.94
2022-12-11T21:41:22.304Z,81.65
2022-12-11T21:46:38.460Z,81.75
2022-12-11T21:49:05.232Z,81.83
2022-12-11T21:51:45.327Z,82.37
2022-12-11T21:54:16.064Z,82.29
2022-12-11T21:56:42.869Z,81.90
2022-12-11T21:59:09.806Z,81.82
2022-12-11T22:01:41.049Z,81.02
2022-12-11T22:04:09.468Z,82.03
2022-12-11T22:06:36.269Z,81.38
2022-12-11T22:09:05.966Z,81.50
2022-12-11T22:11:34.184Z,81.56
2022-12-11T22:14:01.385Z,81.17
2022-12-11T22:16:28.617Z,81.04
2022-12-11T22:18:55.176Z,80.78
2022-12-11T22:21:24.903Z,81.13
2022-12-11T22:23:51.471Z,80.24
2022-12-11T22:26:28.768Z,80.49
2022-12-11T22:28:56.284Z,80.32
2022-12-11T22:31:26.700Z,79.94
2022-12-11T22:33:54.967Z,79.76
2022-12-11T22:36:23.392Z,79.93
2022-12-11T22:38:49.863Z,80.38
2022-12-11T22:41:22.351Z,80.54
2022-12-11T22:43:49.294Z,80.33
2022-12-11T22:46:17.036Z,80.54
2022-12-11T22:48:43.545Z,80.94
2022-12-11T22:51:12.497Z,80.74
2022-12-11T22:53:44.967Z,80.46
2022-12-11T22:56:12.799Z,80.59
2022-12-11T22:58:42.013Z,80.63
2022-12-11T23:01:14.425Z,80.76
2022-12-11T23:03:41.594Z,80.75
2022-12-11T23:06:13.545Z,80.94
2022-12-11T23:08:40.658Z,81.32
2022-12-11T23:11:18.798Z,80.95
2022-12-11T23:13:49.940Z,81.19
2022-12-11T23:16:17.054Z,81.22
2022-12-11T23:18:48.884Z,81.19
2022-12-11T23:21:19.971Z,81.90
2022-12-11T23:23:46.543Z,81.50
2022-12-11T23:26:14.551Z,81.98
2022-12-11T23:28:46.976Z,82.13
2022-12-11T23:31:16.888Z,82.19
2022-12-11T23:33:43.777Z,82.28
2022-12-11T23:36:10.816Z,82.28
2022-12-11T23:38:38.257Z,82.39
2022-12-11T23:41:12.967Z,82.21
2022-12-11T23:47:01.866Z,82.61
2022-12-11T23:49:28.471Z,82.71
2022-12-11T23:52:00.774Z,82.40
2022-12-11T23:54:27.258Z,82.71
2022-12-11T23:56:53.670Z,82.66
2022-12-11T23:59:20.127Z,82.55
